createdAt,value
2022-11-30T00:01:28.523Z,7.70
2022-11-30T00:03:57.387Z,8.27
2022-11-30T00:06:26.055Z,7.63
2022-11-30T00:08:55.355Z,7.40
2022-11-30T00:11:25.422Z,8.10
2022-11-30T00:13:53.226Z,6.80
2022-11-30T00:16:20.909Z,8.40
2022-11-30T00:18:48.244Z,7.33
2022-11-30T00:21:16.229Z,7.03
2022-11-30T00:23:45.945Z,10.07
2022-11-30T00:26:19.379Z,7.10
2022-11-30T00:28:46.663Z,7.67
2022-11-30T00:31:16.934Z,6.67
2022-11-30T00:33:44.860Z,8.73
2022-11-30T00:36:21.641Z,7.83
2022-11-30T00:38:50.847Z,6.90
2022-11-30T00:41:20.003Z,7.30
2022-11-30T00:43:47.856Z,7.40
2022-11-30T00:46:15.336Z,7.13
2022-11-30T00:48:42.684Z,6.40
2022-11-30T00:51:12.017Z,7.13
2022-11-30T00:53:41.198Z,7.07
2022-11-30T00:56:09.750Z,7.80
2022-11-30T00:58:37.254Z,7.00
2022-11-30T01:01:04.922Z,7.63
2022-11-30T01:03:32.376Z,7.03
2022-11-30T01:06:09.446Z,7.47
2022-11-30T01:08:37.084Z,8.17
2022-11-30T01:11:16.772Z,6.73
2022-11-30T01:13:43.992Z,8.50
2022-11-30T01:16:19.515Z,7.43
2022-11-30T01:18:48.527Z,7.43
2022-11-30T01:21:20.019Z,7.57
2022-11-30T01:23:48.292Z,7.70
2022-11-30T01:26:19.349Z,6.40
2022-11-30T01:28:54.731Z,8.27
2022-11-30T01:31:24.069Z,9.33
2022-11-30T01:33:54.441Z,7.40
2022-11-30T01:36:25.599Z,7.77
2022-11-30T01:38:57.047Z,9.43
2022-11-30T01:41:29.438Z,7.97
2022-11-30T01:44:20.347Z,7.30
2022-11-30T01:47:09.220Z,11.60
2022-11-30T01:49:51.656Z,9.27
2022-11-30T01:52:40.215Z,7.40
2022-11-30T01:55:22.239Z,7.07
2022-11-30T01:58:13.773Z,7.33
2022-11-30T02:00:47.497Z,7.57
2022-11-30T02:03:47.655Z,9.13
2022-11-30T02:06:15.695Z,10.10
2022-11-30T02:08:43.235Z,8.03
2022-11-30T02:11:15.429Z,7.60
2022-11-30T02:14:28.465Z,8.03
2022-11-30T02:17:14.145Z,6.47
2022-11-30T02:20:02.380Z,6.37
2022-11-30T02:23:00.838Z,6.37
2022-11-30T02:25:54.520Z,6.57
2022-11-30T02:29:02.339Z,9.43
2022-11-30T02:31:58.285Z,6.80
2022-11-30T02:34:31.581Z,9.13
2022-11-30T02:37:01.104Z,7.00
2022-11-30T02:39:28.241Z,7.23
2022-11-30T02:41:55.370Z,5.90
2022-11-30T02:44:24.037Z,6.83
2022-11-30T02:47:14.733Z,7.03
2022-11-30T02:49:58.906Z,8.60
2022-11-30T02:52:30.064Z,6.23
2022-11-30T02:55:08.593Z,5.43
2022-11-30T02:57:36.750Z,5.63
2022-11-30T03:00:11.095Z,5.70
2022-11-30T03:02:39.523Z,7.17
2022-11-30T03:05:08.412Z,6.10
2022-11-30T03:07:36.235Z,6.37
2022-11-30T03:10:04.805Z,5.50
2022-11-30T03:12:32.258Z,5.83
2022-11-30T03:14:59.622Z,6.00
2022-11-30T03:17:27.007Z,6.50
2022-11-30T03:19:54.330Z,5.80
2022-11-30T03:22:21.545Z,6.90
2022-11-30T03:24:49.169Z,6.60
2022-11-30T03:27:16.821Z,7.47
2022-11-30T03:29:44.198Z,5.83
2022-11-30T03:32:11.366Z,7.00
2022-11-30T03:34:38.489Z,5.80
2022-11-30T03:37:05.644Z,6.53
2022-11-30T03:39:32.838Z,6.77
2022-11-30T03:42:00.000Z,6.20
2022-11-30T03:44:27.188Z,9.83
2022-11-30T03:46:54.411Z,12.40
2022-11-30T03:49:21.600Z,7.90
2022-11-30T03:51:48.704Z,7.63
2022-11-30T03:54:15.828Z,8.30
2022-11-30T03:56:43.182Z,8.73
2022-11-30T03:59:10.453Z,8.83
2022-11-30T04:01:37.722Z,7.90
2022-11-30T04:04:05.161Z,6.67
2022-11-30T04:06:32.431Z,5.70
2022-11-30T04:08:59.853Z,5.17
2022-11-30T04:11:28.503Z,5.53
2022-11-30T04:13:56.214Z,5.23
2022-11-30T04:16:23.623Z,5.67
2022-11-30T04:18:55.316Z,9.10
2022-11-30T04:21:26.045Z,5.73
2022-11-30T04:23:53.601Z,10.70
2022-11-30T04:26:21.169Z,6.47
2022-11-30T04:28:49.282Z,6.13
2022-11-30T04:31:17.687Z,6.23
2022-11-30T04:33:45.869Z,5.50
2022-11-30T04:36:20.431Z,5.77
2022-11-30T04:38:48.611Z,6.20
2022-11-30T04:41:17.042Z,7.50
2022-11-30T04:43:44.461Z,6.20
2022-11-30T04:46:12.264Z,6.13
2022-11-30T04:48:39.406Z,6.40
2022-11-30T04:51:09.114Z,6.37
2022-11-30T04:53:38.164Z,8.20
2022-11-30T04:56:10.146Z,7.93
2022-11-30T04:58:37.984Z,6.17
2022-11-30T05:01:05.481Z,6.07
2022-11-30T05:03:33.055Z,7.90
2022-11-30T05:06:00.280Z,5.73
2022-11-30T05:08:27.564Z,7.23
2022-11-30T05:10:55.630Z,7.83
2022-11-30T05:13:25.195Z,7.27
2022-11-30T05:15:52.438Z,5.63
2022-11-30T05:18:20.083Z,8.83
2022-11-30T05:20:49.771Z,7.80
2022-11-30T05:23:17.891Z,9.63
2022-11-30T05:25:46.265Z,8.63
2022-11-30T05:28:13.807Z,10.77
2022-11-30T05:30:43.086Z,8.33
2022-11-30T05:33:11.053Z,9.83
2022-11-30T05:35:39.084Z,10.37
2022-11-30T05:38:06.938Z,14.37
2022-11-30T05:40:34.149Z,12.03
2022-11-30T05:43:03.673Z,12.63
2022-11-30T05:45:31.034Z,15.13
2022-11-30T05:47:58.150Z,22.00
2022-11-30T05:50:25.333Z,24.60
2022-11-30T05:52:55.069Z,25.37
2022-11-30T05:55:24.574Z,23.33
2022-11-30T05:57:51.720Z,23.67
2022-11-30T06:00:20.806Z,16.50
2022-11-30T06:02:49.543Z,14.67
2022-11-30T06:05:17.067Z,10.43
2022-11-30T06:07:44.387Z,10.30
2022-11-30T06:10:12.355Z,10.83
2022-11-30T06:12:39.577Z,11.73
2022-11-30T06:15:07.549Z,16.60
2022-11-30T06:17:34.917Z,14.80
2022-11-30T06:20:02.115Z,13.07
2022-11-30T06:22:29.304Z,13.37
2022-11-30T06:24:56.467Z,11.17
2022-11-30T06:27:23.659Z,10.73
2022-11-30T06:29:51.116Z,18.47
2022-11-30T06:32:18.426Z,17.33
2022-11-30T06:34:49.073Z,11.87
2022-11-30T06:37:17.187Z,12.07
2022-11-30T06:40:13.669Z,16.37
2022-11-30T06:42:50.361Z,17.10
2022-11-30T06:45:17.646Z,9.77
2022-11-30T06:47:44.775Z,11.57
2022-11-30T06:50:13.553Z,12.20
2022-11-30T06:52:41.026Z,14.03
2022-11-30T06:55:08.559Z,11.97
2022-11-30T06:57:35.889Z,10.93
2022-11-30T07:00:04.643Z,12.43
2022-11-30T07:02:32.205Z,12.37
2022-11-30T07:04:59.374Z,11.77
2022-11-30T07:07:29.650Z,18.43
2022-11-30T07:09:57.704Z,12.77
2022-11-30T07:12:25.991Z,11.27
2022-11-30T07:14:53.434Z,11.70
2022-11-30T07:17:20.909Z,28.50
2022-11-30T07:19:48.697Z,23.13
2022-11-30T07:22:16.255Z,15.30
2022-11-30T07:24:43.352Z,13.63
2022-11-30T07:27:10.765Z,10.17
2022-11-30T07:29:37.977Z,12.17
2022-11-30T07:32:05.332Z,12.87
2022-11-30T07:34:32.508Z,12.67
2022-11-30T07:36:59.789Z,10.17
2022-11-30T07:39:26.915Z,12.27
2022-11-30T07:41:54.027Z,12.53
2022-11-30T07:44:21.142Z,15.47
2022-11-30T07:46:48.469Z,14.40
2022-11-30T07:49:15.624Z,10.73
2022-11-30T07:51:42.839Z,10.97
2022-11-30T07:54:10.226Z,13.40
2022-11-30T07:56:37.438Z,29.30
2022-11-30T07:59:04.640Z,21.03
2022-11-30T08:01:33.554Z,17.23
2022-11-30T08:04:01.044Z,19.53
2022-11-30T08:06:32.557Z,22.57
2022-11-30T08:09:03.771Z,15.63
2022-11-30T08:11:34.366Z,16.10
2022-11-30T08:14:04.659Z,25.57
2022-11-30T08:16:37.271Z,15.80
2022-11-30T08:19:05.225Z,15.27
2022-11-30T08:21:32.392Z,12.87
2022-11-30T08:23:59.646Z,36.93
2022-11-30T08:26:32.110Z,25.10
2022-11-30T08:29:01.445Z,19.47
2022-11-30T08:31:32.767Z,17.40
2022-11-30T08:34:06.450Z,10.90
2022-11-30T08:36:35.109Z,12.30
2022-11-30T08:39:05.402Z,16.47
2022-11-30T08:41:34.269Z,19.77
2022-11-30T08:44:02.161Z,33.17
2022-11-30T08:49:24.724Z,19.00
2022-11-30T08:54:47.937Z,12.13
2022-11-30T08:57:18.668Z,13.27
2022-11-30T08:59:46.507Z,11.73
2022-11-30T09:02:16.593Z,13.03
2022-11-30T09:04:43.762Z,14.27
2022-11-30T09:07:11.242Z,19.90
2022-11-30T09:09:38.792Z,16.03
2022-11-30T09:12:07.783Z,17.53
2022-11-30T09:14:34.949Z,21.53
2022-11-30T09:17:02.265Z,34.00
2022-11-30T09:19:29.596Z,22.77
2022-11-30T09:21:56.771Z,30.00
2022-11-30T09:24:23.894Z,26.73
2022-11-30T09:26:51.014Z,52.23
2022-11-30T09:29:18.320Z,25.67
2022-11-30T09:31:45.657Z,10.77
2022-11-30T09:34:13.182Z,13.07
2022-11-30T09:36:40.421Z,10.70
2022-11-30T09:39:11.038Z,16.67
2022-11-30T09:42:25.620Z,16.10
2022-11-30T09:45:19.226Z,14.77
2022-11-30T09:48:05.766Z,11.10
2022-11-30T09:50:43.703Z,10.53
2022-11-30T09:53:59.567Z,10.20
2022-11-30T09:56:33.574Z,10.10
2022-11-30T09:59:21.588Z,10.60
2022-11-30T10:01:55.318Z,11.17
2022-11-30T10:04:29.852Z,10.70
2022-11-30T10:07:37.348Z,9.60
2022-11-30T10:10:37.695Z,10.23
2022-11-30T10:13:47.979Z,11.80
2022-11-30T10:16:43.527Z,13.43
2022-11-30T10:19:25.719Z,10.90
2022-11-30T10:22:29.604Z,14.70
2022-11-30T10:25:23.888Z,12.07
2022-11-30T10:27:53.418Z,14.80
2022-11-30T10:30:26.188Z,13.23
2022-11-30T10:32:56.623Z,11.27
2022-11-30T10:35:39.066Z,12.33
2022-11-30T10:38:25.743Z,17.13
2022-11-30T10:41:17.387Z,15.37
2022-11-30T10:44:21.655Z,12.27
2022-11-30T10:47:22.656Z,11.87
2022-11-30T10:49:52.500Z,14.03
2022-11-30T10:52:34.574Z,13.00
2022-11-30T10:55:04.961Z,12.20
2022-11-30T10:57:33.435Z,10.80
2022-11-30T11:00:04.971Z,17.03
2022-11-30T11:02:51.735Z,13.53
2022-11-30T11:05:31.776Z,12.77
2022-11-30T11:08:07.147Z,9.43
2022-11-30T11:10:39.418Z,10.07
2022-11-30T11:13:15.587Z,11.60
2022-11-30T11:16:00.644Z,10.93
2022-11-30T11:18:33.755Z,10.47
2022-11-30T11:21:07.060Z,14.03
2022-11-30T11:23:39.275Z,13.37
2022-11-30T11:26:17.722Z,12.47
2022-11-30T11:28:48.531Z,13.17
2022-11-30T11:31:33.574Z,11.70
2022-11-30T11:34:01.109Z,13.07
2022-11-30T11:36:34.668Z,12.33
2022-11-30T11:39:01.938Z,12.33
2022-11-30T11:41:38.834Z,11.30
2022-11-30T11:44:12.144Z,12.77
2022-11-30T11:46:58.022Z,9.73
2022-11-30T11:49:30.250Z,10.97
2022-11-30T11:52:21.376Z,12.57
2022-11-30T11:55:03.894Z,13.47
2022-11-30T11:57:58.081Z,11.70
2022-11-30T12:00:25.646Z,11.57
2022-11-30T12:03:38.498Z,10.37
2022-11-30T12:06:17.365Z,10.60
2022-11-30T12:09:00.447Z,11.03
2022-11-30T12:11:46.249Z,11.37
2022-11-30T12:14:17.373Z,10.27
2022-11-30T12:16:47.146Z,9.57
2022-11-30T12:19:31.533Z,9.07
2022-11-30T12:22:32.388Z,14.60
2022-11-30T12:25:20.361Z,15.43
2022-11-30T12:28:13.768Z,8.50
2022-11-30T12:30:57.784Z,8.70
2022-11-30T12:33:36.800Z,8.93
2022-11-30T12:36:13.790Z,11.30
2022-11-30T12:39:15.259Z,9.63
2022-11-30T12:41:59.507Z,10.43
2022-11-30T12:45:04.042Z,14.83
2022-11-30T12:47:47.493Z,9.27
2022-11-30T12:50:40.287Z,9.70
2022-11-30T12:53:32.285Z,19.57
2022-11-30T12:56:46.443Z,9.00
2022-11-30T12:59:32.466Z,9.27
2022-11-30T13:02:45.410Z,8.90
2022-11-30T13:05:32.882Z,9.37
2022-11-30T13:08:24.152Z,7.90
2022-11-30T13:11:02.344Z,8.63
2022-11-30T13:13:33.747Z,22.07
2022-11-30T13:16:07.934Z,9.57
2022-11-30T13:18:36.442Z,8.83
2022-11-30T13:21:37.500Z,33.60
2022-11-30T13:24:07.524Z,15.63
2022-11-30T13:27:06.750Z,11.60
2022-11-30T13:29:42.574Z,9.37
2022-11-30T13:32:48.684Z,11.37
2022-11-30T13:35:29.641Z,12.67
2022-11-30T13:38:35.361Z,12.17
2022-11-30T13:41:05.668Z,9.43
2022-11-30T13:43:51.384Z,10.47
2022-11-30T13:46:22.988Z,14.87
2022-11-30T13:49:31.989Z,11.67
2022-11-30T13:52:21.957Z,9.60
2022-11-30T13:54:52.026Z,13.57
2022-11-30T13:57:25.277Z,16.50
2022-11-30T14:00:00.706Z,13.83
2022-11-30T14:02:33.811Z,11.50
2022-11-30T14:05:19.255Z,10.53
2022-11-30T14:07:52.655Z,10.10
2022-11-30T14:10:33.036Z,8.03
2022-11-30T14:13:09.203Z,11.53
2022-11-30T14:15:39.379Z,24.97
2022-11-30T14:18:09.382Z,15.17
2022-11-30T14:21:01.757Z,11.13
2022-11-30T14:23:40.451Z,10.13
2022-11-30T14:26:21.081Z,8.57
2022-11-30T14:29:16.352Z,11.57
2022-11-30T14:31:58.300Z,16.77
2022-11-30T14:34:31.637Z,10.70
2022-11-30T14:37:13.822Z,10.00
2022-11-30T14:39:45.810Z,10.27
2022-11-30T14:42:30.398Z,9.50
2022-11-30T14:44:58.381Z,12.40
2022-11-30T14:47:35.316Z,11.30
2022-11-30T14:50:05.941Z,9.57
2022-11-30T14:53:06.244Z,10.40
2022-11-30T14:55:53.079Z,8.93
2022-11-30T14:58:51.490Z,9.67
2022-11-30T15:01:23.849Z,11.03
2022-11-30T15:03:55.492Z,16.77
2022-11-30T15:06:31.293Z,15.27
2022-11-30T15:09:01.839Z,10.07
2022-11-30T15:11:29.706Z,10.50
2022-11-30T15:14:09.915Z,10.07
2022-11-30T15:16:37.700Z,11.03
2022-11-30T15:19:26.059Z,10.50
2022-11-30T15:21:55.875Z,10.00
2022-11-30T15:24:23.460Z,17.27
2022-11-30T15:27:11.179Z,11.50
2022-11-30T15:29:46.762Z,11.43
2022-11-30T15:32:24.272Z,11.10
2022-11-30T15:34:58.458Z,13.83
2022-11-30T15:37:32.465Z,14.83
2022-11-30T15:40:04.054Z,18.53
2022-11-30T15:42:37.943Z,12.20
2022-11-30T15:45:20.731Z,14.70
2022-11-30T15:47:56.504Z,16.50
2022-11-30T15:50:37.123Z,13.63
2022-11-30T15:53:29.388Z,12.87
2022-11-30T15:56:01.920Z,13.60
2022-11-30T15:58:59.401Z,12.27
2022-11-30T16:01:27.672Z,11.47
2022-11-30T16:04:06.267Z,11.00
2022-11-30T16:06:46.981Z,13.27
2022-11-30T16:09:30.200Z,11.10
2022-11-30T16:12:00.611Z,13.73
2022-11-30T16:14:28.475Z,12.17
2022-11-30T16:16:56.297Z,12.43
2022-11-30T16:19:23.595Z,11.43
2022-11-30T16:21:51.011Z,12.53
2022-11-30T16:24:18.184Z,13.37
2022-11-30T16:26:52.853Z,11.17
2022-11-30T16:29:20.620Z,13.60
2022-11-30T16:31:47.905Z,13.53
2022-11-30T16:34:15.052Z,11.00
2022-11-30T16:36:42.199Z,13.27
2022-11-30T16:39:12.944Z,10.60
2022-11-30T16:41:40.410Z,13.93
2022-11-30T16:44:13.863Z,12.73
2022-11-30T16:46:41.085Z,12.97
2022-11-30T16:49:08.341Z,13.07
2022-11-30T16:51:35.889Z,12.43
2022-11-30T16:54:04.445Z,13.77
2022-11-30T16:56:31.665Z,15.33
2022-11-30T16:58:58.891Z,13.73
2022-11-30T17:01:49.859Z,13.63
2022-11-30T17:04:23.544Z,16.30
2022-11-30T17:06:53.771Z,18.53
2022-11-30T17:09:24.710Z,18.43
2022-11-30T17:11:52.068Z,20.67
2022-11-30T17:14:20.823Z,24.53
2022-11-30T17:16:48.113Z,19.53
2022-11-30T17:19:15.494Z,14.77
2022-11-30T17:21:43.281Z,13.57
2022-11-30T17:24:11.221Z,16.40
2022-11-30T17:26:38.367Z,17.17
2022-11-30T17:29:06.200Z,14.83
2022-11-30T17:31:33.796Z,16.70
2022-11-30T17:34:01.862Z,18.40
2022-11-30T17:36:29.022Z,13.70
2022-11-30T17:38:56.141Z,15.33
2022-11-30T17:41:23.335Z,13.87
2022-11-30T17:43:50.515Z,11.03
2022-11-30T17:46:18.865Z,10.93
2022-11-30T17:48:46.414Z,11.40
2022-11-30T17:51:14.338Z,11.63
2022-11-30T17:53:42.907Z,10.57
2022-11-30T17:56:16.801Z,11.50
2022-11-30T17:58:45.991Z,11.00
2022-11-30T18:01:22.804Z,13.27
2022-11-30T18:03:51.807Z,12.83
2022-11-30T18:06:20.301Z,11.10
2022-11-30T18:08:48.595Z,11.37
2022-11-30T18:11:19.940Z,12.47
2022-11-30T18:13:48.725Z,13.33
2022-11-30T18:16:26.597Z,11.27
2022-11-30T18:18:55.477Z,10.83
2022-11-30T18:21:24.704Z,11.17
2022-11-30T18:23:52.473Z,10.87
2022-11-30T18:26:23.629Z,11.77
2022-11-30T18:28:59.941Z,12.30
2022-11-30T18:31:29.771Z,10.90
2022-11-30T18:34:00.700Z,11.17
2022-11-30T18:36:29.201Z,10.70
2022-11-30T18:38:56.687Z,13.83
2022-11-30T18:41:24.373Z,13.73
2022-11-30T18:43:54.995Z,12.50
2022-11-30T18:46:22.467Z,12.97
2022-11-30T18:48:53.295Z,12.50
2022-11-30T18:51:26.507Z,10.60
2022-11-30T18:54:07.171Z,11.20
2022-11-30T18:56:38.200Z,11.23
2022-11-30T18:59:13.611Z,12.07
2022-11-30T19:01:41.343Z,9.87
2022-11-30T19:04:11.077Z,12.30
2022-11-30T19:06:40.927Z,12.70
2022-11-30T19:09:13.066Z,12.27
2022-11-30T19:11:42.987Z,14.47
2022-11-30T19:14:14.728Z,13.97
2022-11-30T19:16:43.212Z,14.30
2022-11-30T19:19:14.266Z,14.40
2022-11-30T19:21:44.379Z,16.97
2022-11-30T19:24:11.576Z,17.70
2022-11-30T19:26:39.214Z,14.93
2022-11-30T19:29:07.467Z,15.53
2022-11-30T19:31:36.099Z,17.53
2022-11-30T19:34:06.570Z,20.63
2022-11-30T19:36:36.978Z,18.00
2022-11-30T19:39:04.199Z,15.57
2022-11-30T19:41:37.241Z,13.40
2022-11-30T19:44:05.563Z,15.97
2022-11-30T19:46:33.542Z,14.13
2022-11-30T19:49:01.757Z,12.70
2022-11-30T19:51:31.407Z,13.00
2022-11-30T19:53:59.515Z,13.13
2022-11-30T19:56:30.339Z,12.90
2022-11-30T19:59:04.016Z,15.50
2022-11-30T20:01:34.131Z,13.33
2022-11-30T20:04:01.719Z,12.80
2022-11-30T20:06:36.223Z,11.13
2022-11-30T20:09:06.884Z,11.87
2022-11-30T20:11:35.031Z,11.53
2022-11-30T20:14:02.775Z,10.10
2022-11-30T20:16:30.169Z,10.40
2022-11-30T20:19:01.471Z,10.10
2022-11-30T20:21:33.063Z,10.30
2022-11-30T20:24:03.983Z,9.60
2022-11-30T20:26:36.546Z,13.03
2022-11-30T20:29:06.929Z,11.77
2022-11-30T20:31:36.444Z,11.07
2022-11-30T20:34:04.806Z,13.07
2022-11-30T20:36:32.165Z,11.03
2022-11-30T20:38:59.913Z,9.03
2022-11-30T20:41:27.265Z,9.83
2022-11-30T20:43:55.629Z,11.67
2022-11-30T20:46:29.939Z,10.37
2022-11-30T20:48:59.125Z,9.53
2022-11-30T20:51:33.901Z,9.63
2022-11-30T20:54:05.882Z,11.37
2022-11-30T20:56:35.422Z,8.87
2022-11-30T20:59:05.366Z,13.13
2022-11-30T21:01:33.381Z,9.13
2022-11-30T21:04:01.389Z,10.43
2022-11-30T21:06:30.411Z,10.77
2022-11-30T21:08:58.972Z,9.83
2022-11-30T21:11:27.791Z,10.63
2022-11-30T21:13:55.602Z,11.17
2022-11-30T21:16:28.134Z,11.70
2022-11-30T21:18:59.437Z,12.90
2022-11-30T21:21:34.206Z,11.87
2022-11-30T21:24:08.891Z,12.80
2022-11-30T21:26:39.837Z,14.80
2022-11-30T21:29:15.830Z,11.37
2022-11-30T21:31:44.661Z,10.73
2022-11-30T21:34:12.538Z,11.43
2022-11-30T21:36:40.321Z,11.47
2022-11-30T21:39:09.220Z,10.30
2022-11-30T21:41:39.518Z,11.87
2022-11-30T21:44:12.282Z,12.87
2022-11-30T21:46:39.613Z,12.17
2022-11-30T21:49:07.585Z,12.00
2022-11-30T21:51:34.946Z,13.83
2022-11-30T21:54:05.914Z,13.27
2022-11-30T21:56:37.207Z,14.23
2022-11-30T21:59:08.220Z,11.80
2022-11-30T22:01:39.829Z,11.73
2022-11-30T22:04:10.373Z,11.60
2022-11-30T22:06:39.849Z,11.93
2022-11-30T22:09:13.050Z,11.87
2022-11-30T22:11:43.127Z,11.80
2022-11-30T22:14:16.488Z,11.67
2022-11-30T22:16:44.574Z,11.03
2022-11-30T22:19:11.765Z,11.33
2022-11-30T22:21:39.192Z,10.10
2022-11-30T22:24:10.928Z,10.47
2022-11-30T22:26:44.559Z,12.20
2022-11-30T22:29:15.618Z,11.67
2022-11-30T22:31:46.472Z,9.17
2022-11-30T22:34:14.323Z,9.60
2022-11-30T22:36:44.258Z,9.80
2022-11-30T22:39:15.048Z,11.33
2022-11-30T22:41:45.259Z,9.33
2022-11-30T22:44:15.904Z,10.37
2022-11-30T22:46:44.516Z,11.17
2022-11-30T22:49:20.789Z,10.40
2022-11-30T22:51:50.196Z,15.40
2022-11-30T22:54:17.698Z,13.20
2022-11-30T22:56:45.417Z,12.30
2022-11-30T22:59:14.058Z,12.67
2022-11-30T23:01:47.331Z,11.13
2022-11-30T23:04:21.481Z,10.40
2022-11-30T23:06:50.091Z,10.63
2022-11-30T23:09:23.456Z,9.73
2022-11-30T23:11:52.095Z,12.43
2022-11-30T23:14:19.427Z,11.63
2022-11-30T23:16:46.921Z,12.73
2022-11-30T23:19:15.400Z,10.87
2022-11-30T23:21:44.229Z,12.73
2022-11-30T23:24:17.089Z,12.10
2022-11-30T23:26:44.541Z,11.60
2022-11-30T23:29:14.963Z,10.77
2022-11-30T23:31:44.457Z,11.77
2022-11-30T23:34:17.717Z,15.97
2022-11-30T23:36:45.558Z,12.43
2022-11-30T23:39:17.809Z,11.33
2022-11-30T23:41:45.714Z,13.63
2022-11-30T23:44:13.901Z,13.50
2022-11-30T23:46:41.375Z,11.13
2022-11-30T23:49:09.228Z,11.80
2022-11-30T23:51:36.685Z,13.33
2022-11-30T23:54:04.490Z,11.53
2022-11-30T23:56:31.621Z,13.13
2022-11-30T23:58:58.784Z,11.80
